< < Back
Terminal Aerodrome Forecast


Current Version              Previous Versions:   1  2  3  4  5  6  7  8  9  

Terminal Aerodrome Forecast

917
FTUS42 KGSP 201700
TAFAVL
TAF
KAVL 201731Z 2018/2118 06008KT P6SM FEW250
     FM210100 10004KT P6SM FEW250
     FM210300 04003KT P6SM FEW250
     FM211200 33004KT P6SM FEW240=



Latest METAR

878
SAUS70 KWBC 210400 RRM
MTRAVL
METAR KAVL 210354Z AUTO 00000KT 10SM CLR 08/03 A3023 RMK AO2 SLP227
T00830033


USA.gov is the U.S. government's official web portal to all federal, state and local government web resources and services.